createdAt,value
2023-05-02T00:00:04.149Z,38.56
2023-05-02T00:02:31.863Z,38.48
2023-05-02T00:04:58.742Z,38.60
2023-05-02T00:07:26.736Z,40.04
2023-05-02T00:09:53.444Z,40.36
2023-05-02T00:12:20.653Z,39.77
2023-05-02T00:14:47.360Z,39.84
2023-05-02T00:17:20.593Z,40.09
2023-05-02T00:19:47.669Z,39.87
2023-05-02T00:22:14.394Z,39.25
2023-05-02T00:24:41.167Z,39.07
2023-05-02T00:27:08.060Z,38.94
2023-05-02T00:29:34.765Z,39.18
2023-05-02T00:32:01.756Z,39.12
2023-05-02T00:34:31.745Z,39.02
2023-05-02T00:36:58.763Z,39.33
2023-05-02T00:39:25.645Z,39.41
2023-05-02T00:41:59.381Z,39.65
2023-05-02T00:44:26.191Z,39.64
2023-05-02T00:46:53.395Z,39.61
2023-05-02T00:49:20.194Z,39.73
2023-05-02T00:51:47.014Z,39.84
2023-05-02T00:54:14.188Z,39.82
2023-05-02T00:56:41.075Z,39.88
2023-05-02T00:59:09.128Z,39.68
2023-05-02T01:01:51.395Z,39.72
2023-05-02T01:04:43.760Z,39.75
2023-05-02T01:07:13.583Z,39.77
2023-05-02T01:09:42.686Z,39.75
2023-05-02T01:12:29.091Z,39.87
2023-05-02T01:14:56.169Z,40.06
2023-05-02T01:17:35.605Z,39.79
2023-05-02T01:20:04.114Z,39.84
2023-05-02T01:22:30.957Z,39.66
2023-05-02T01:25:01.311Z,39.92
2023-05-02T01:27:34.055Z,39.80
2023-05-02T01:30:01.134Z,40.23
2023-05-02T01:32:28.216Z,40.20
2023-05-02T01:34:54.968Z,40.16
2023-05-02T01:37:21.711Z,40.09
2023-05-02T01:39:48.577Z,40.08
2023-05-02T01:42:15.349Z,40.17
2023-05-02T01:44:42.679Z,40.03
2023-05-02T01:47:10.220Z,40.25
2023-05-02T01:49:37.102Z,40.42
2023-05-02T01:52:05.806Z,40.55
2023-05-02T01:54:33.672Z,40.66
2023-05-02T01:57:01.540Z,40.78
2023-05-02T01:59:28.284Z,40.89
2023-05-02T02:01:55.217Z,40.86
2023-05-02T02:04:22.423Z,40.95
2023-05-02T02:06:52.770Z,41.00
2023-05-02T02:09:19.669Z,41.02
2023-05-02T02:11:52.389Z,41.03
2023-05-02T02:14:21.591Z,41.05
2023-05-02T02:16:48.482Z,41.04
2023-05-02T02:19:15.614Z,40.95
2023-05-02T02:21:43.328Z,40.96
2023-05-02T02:24:10.338Z,41.12
2023-05-02T02:26:37.144Z,41.19
2023-05-02T02:29:04.555Z,41.19
2023-05-02T02:31:36.048Z,41.13
2023-05-02T02:34:03.196Z,41.21
2023-05-02T02:36:52.892Z,41.25
2023-05-02T02:39:36.068Z,41.16
2023-05-02T02:42:26.294Z,41.29
2023-05-02T02:45:15.891Z,41.24
2023-05-02T02:47:46.068Z,41.51
2023-05-02T02:50:16.079Z,41.57
2023-05-02T02:52:55.743Z,41.61
2023-05-02T02:55:32.204Z,41.69
2023-05-02T02:58:13.580Z,41.67
2023-05-02T03:00:40.296Z,41.76
2023-05-02T03:03:07.425Z,41.70
2023-05-02T03:05:34.247Z,41.71
2023-05-02T03:08:01.062Z,41.77
2023-05-02T03:10:28.048Z,41.82
2023-05-02T03:12:55.977Z,41.86
2023-05-02T03:15:51.670Z,41.86
2023-05-02T03:18:19.405Z,41.96
2023-05-02T03:20:46.943Z,41.94
2023-05-02T03:23:14.006Z,41.86
2023-05-02T03:25:40.795Z,41.94
2023-05-02T03:28:08.769Z,41.99
2023-05-02T03:30:35.923Z,41.95
2023-05-02T03:33:04.941Z,42.01
2023-05-02T03:35:32.215Z,41.92
2023-05-02T03:37:59.078Z,41.90
2023-05-02T03:40:27.678Z,41.77
2023-05-02T03:42:55.199Z,41.89
2023-05-02T03:45:25.063Z,41.77
2023-05-02T03:47:52.106Z,41.87
2023-05-02T03:50:19.288Z,41.79
2023-05-02T03:52:47.031Z,41.85
2023-05-02T03:55:14.452Z,41.62
2023-05-02T03:57:41.603Z,41.66
2023-05-02T04:00:09.555Z,41.45
2023-05-02T04:02:39.191Z,41.45
2023-05-02T04:05:09.744Z,41.40
2023-05-02T04:07:36.806Z,40.75
2023-05-02T04:10:06.191Z,40.59
2023-05-02T04:12:37.489Z,40.24
2023-05-02T04:15:04.604Z,40.25
2023-05-02T04:17:31.440Z,39.92
2023-05-02T04:19:58.593Z,39.70
2023-05-02T04:22:27.637Z,39.97
2023-05-02T04:24:59.733Z,39.77
2023-05-02T04:27:27.611Z,39.43
2023-05-02T04:29:54.753Z,39.27
2023-05-02T04:32:22.315Z,39.08
2023-05-02T04:34:49.531Z,38.90
2023-05-02T04:37:17.014Z,38.85
2023-05-02T04:39:45.622Z,38.47
2023-05-02T04:42:17.361Z,38.53
2023-05-02T04:44:54.411Z,38.33
2023-05-02T04:47:21.627Z,38.23
2023-05-02T04:49:48.589Z,38.02
2023-05-02T04:52:15.394Z,37.90
2023-05-02T04:54:42.263Z,38.01
2023-05-02T04:57:10.278Z,38.21
2023-05-02T04:59:40.710Z,37.98
2023-05-02T05:02:08.488Z,38.22
2023-05-02T05:04:35.962Z,38.15
2023-05-02T05:07:02.848Z,38.38
2023-05-02T05:09:29.569Z,38.13
2023-05-02T05:11:56.320Z,38.32
2023-05-02T05:14:24.520Z,38.54
2023-05-02T05:16:54.160Z,38.66
2023-05-02T05:19:21.250Z,38.49
2023-05-02T05:21:48.048Z,38.36
2023-05-02T05:24:17.227Z,38.40
2023-05-02T05:26:44.393Z,38.39
2023-05-02T05:29:11.737Z,38.63
2023-05-02T05:33:46.573Z,38.97
2023-05-02T05:36:15.141Z,38.84
2023-05-02T05:38:42.436Z,39.12
2023-05-02T05:41:11.249Z,39.12
2023-05-02T05:43:41.755Z,39.29
2023-05-02T05:46:08.982Z,39.52
2023-05-02T05:48:37.591Z,39.72
2023-05-02T05:51:05.646Z,39.76
2023-05-02T05:53:32.728Z,39.91
2023-05-02T05:56:09.197Z,39.97
2023-05-02T05:58:37.955Z,40.16
2023-05-02T06:01:06.358Z,39.95
2023-05-02T06:03:36.158Z,40.03
2023-05-02T06:06:04.622Z,40.17
2023-05-02T06:08:31.781Z,40.23
2023-05-02T06:10:58.592Z,39.92
2023-05-02T06:13:26.143Z,39.82
2023-05-02T06:15:53.282Z,39.73
2023-05-02T06:18:20.253Z,39.47
2023-05-02T06:20:47.124Z,39.43
2023-05-02T06:23:14.911Z,39.59
2023-05-02T06:25:42.095Z,39.65
2023-05-02T06:28:09.615Z,39.70
2023-05-02T06:30:36.731Z,39.71
2023-05-02T06:33:07.053Z,39.65
2023-05-02T06:35:34.184Z,39.77
2023-05-02T06:38:01.046Z,39.33
2023-05-02T06:40:29.658Z,39.05
2023-05-02T06:42:56.528Z,39.08
2023-05-02T06:45:23.363Z,38.85
2023-05-02T06:47:50.156Z,38.43
2023-05-02T06:50:17.043Z,38.56
2023-05-02T06:52:43.895Z,38.38
2023-05-02T06:55:10.700Z,38.13
2023-05-02T06:57:37.506Z,38.28
2023-05-02T07:00:05.101Z,38.33
2023-05-02T07:02:32.269Z,38.16
2023-05-02T07:04:59.248Z,38.12
2023-05-02T07:07:27.009Z,38.37
2023-05-02T07:09:53.898Z,38.37
2023-05-02T07:12:21.233Z,38.49
2023-05-02T07:14:47.988Z,38.54
2023-05-02T07:17:15.956Z,38.62
2023-05-02T07:19:45.247Z,38.72
2023-05-02T07:22:12.510Z,38.77
2023-05-02T07:24:42.661Z,38.74
2023-05-02T07:27:10.399Z,38.67
2023-05-02T07:29:37.301Z,38.62
2023-05-02T07:32:04.398Z,38.64
2023-05-02T07:34:31.782Z,38.45
2023-05-02T07:36:58.847Z,38.36
2023-05-02T07:39:25.996Z,38.01
2023-05-02T07:41:53.408Z,37.94
2023-05-02T07:44:20.970Z,37.06
2023-05-02T07:46:48.004Z,37.07
2023-05-02T07:49:14.970Z,37.18
2023-05-02T07:51:41.897Z,36.71
2023-05-02T07:54:19.361Z,36.80
2023-05-02T07:56:46.664Z,37.04
2023-05-02T07:59:13.834Z,37.00
2023-05-02T08:01:41.605Z,37.44
2023-05-02T08:04:10.672Z,37.33
2023-05-02T08:06:38.088Z,37.18
2023-05-02T08:09:05.167Z,37.29
2023-05-02T08:11:32.007Z,37.02
2023-05-02T08:13:58.792Z,36.48
2023-05-02T08:16:25.745Z,36.57
2023-05-02T08:18:52.680Z,36.50
2023-05-02T08:21:19.477Z,36.74
2023-05-02T08:23:46.643Z,36.69
2023-05-02T08:26:13.525Z,36.47
2023-05-02T08:28:40.413Z,36.17
2023-05-02T08:31:07.276Z,36.16
2023-05-02T08:33:34.166Z,35.74
2023-05-02T08:36:01.259Z,35.25
2023-05-02T08:38:28.070Z,35.06
2023-05-02T08:40:54.978Z,35.05
2023-05-02T08:43:21.719Z,35.14
2023-05-02T08:45:48.533Z,34.85
2023-05-02T08:48:17.034Z,34.57
2023-05-02T08:50:46.644Z,33.82
2023-05-02T08:53:16.453Z,34.06
2023-05-02T08:55:43.245Z,33.99
2023-05-02T08:58:11.519Z,34.03
2023-05-02T09:00:39.829Z,33.10
2023-05-02T09:03:31.836Z,32.45
2023-05-02T09:06:07.363Z,32.27
2023-05-02T09:08:35.445Z,32.12
2023-05-02T09:11:04.046Z,31.98
2023-05-02T09:13:44.789Z,32.47
2023-05-02T09:16:13.049Z,32.00
2023-05-02T09:18:44.522Z,31.41
2023-05-02T09:21:20.740Z,31.30
2023-05-02T09:24:00.251Z,30.36
2023-05-02T09:26:31.824Z,29.76
2023-05-02T09:29:04.205Z,29.44
2023-05-02T09:34:11.542Z,27.96
2023-05-02T09:36:42.330Z,27.75
2023-05-02T09:39:17.195Z,27.21
2023-05-02T09:41:45.528Z,26.50
2023-05-02T09:44:18.362Z,26.45
2023-05-02T09:46:49.291Z,26.29
2023-05-02T09:49:19.113Z,25.85
2023-05-02T09:51:49.275Z,25.72
2023-05-02T09:54:39.471Z,25.25
2023-05-02T09:57:07.673Z,24.43
2023-05-02T09:59:34.531Z,23.54
2023-05-02T10:02:03.159Z,23.56
2023-05-02T10:04:32.232Z,23.95
2023-05-02T10:06:59.545Z,24.16
2023-05-02T10:09:26.968Z,24.11
2023-05-02T10:11:54.743Z,23.61
2023-05-02T10:14:23.059Z,23.16
2023-05-02T10:16:55.742Z,22.62
2023-05-02T10:19:24.871Z,22.93
2023-05-02T10:21:51.605Z,22.69
2023-05-02T10:24:18.425Z,22.63
2023-05-02T10:26:45.729Z,22.90
2023-05-02T10:29:12.602Z,22.85
2023-05-02T10:31:41.457Z,22.70
2023-05-02T10:34:11.229Z,22.55
2023-05-02T10:36:38.318Z,22.38
2023-05-02T10:39:05.556Z,22.55
2023-05-02T10:41:32.373Z,22.32
2023-05-02T10:44:00.155Z,22.64
2023-05-02T10:46:33.860Z,22.17
2023-05-02T10:49:10.903Z,22.04
2023-05-02T10:51:42.029Z,22.05
2023-05-02T10:54:29.390Z,21.47
2023-05-02T10:57:06.423Z,21.33
2023-05-02T10:59:38.008Z,21.15
2023-05-02T11:02:28.586Z,20.83
2023-05-02T11:05:03.079Z,20.45
2023-05-02T11:07:31.320Z,20.19
2023-05-02T11:10:16.677Z,20.05
2023-05-02T11:12:50.409Z,20.62
2023-05-02T11:15:27.091Z,21.19
2023-05-02T11:18:09.663Z,20.58
2023-05-02T11:20:37.149Z,20.68
2023-05-02T11:23:16.878Z,21.13
2023-05-02T11:25:49.781Z,21.28
2023-05-02T11:28:38.840Z,21.40
2023-05-02T11:31:06.610Z,21.03
2023-05-02T11:33:33.683Z,20.72
2023-05-02T11:36:00.650Z,20.04
2023-05-02T11:38:35.631Z,20.29
2023-05-02T11:41:04.453Z,20.44
2023-05-02T11:43:32.393Z,20.16
2023-05-02T11:46:01.986Z,20.33
2023-05-02T11:48:29.412Z,20.32
2023-05-02T11:50:58.948Z,20.42
2023-05-02T11:53:26.692Z,20.43
2023-05-02T11:56:03.912Z,20.39
2023-05-02T11:58:35.247Z,20.12
2023-05-02T12:01:15.462Z,19.99
2023-05-02T12:03:42.744Z,19.91
2023-05-02T12:06:13.880Z,19.84
2023-05-02T12:08:42.304Z,19.79
2023-05-02T12:11:09.365Z,19.75
2023-05-02T12:13:36.248Z,19.67
2023-05-02T12:16:03.113Z,19.72
2023-05-02T12:18:29.913Z,19.70
2023-05-02T12:20:56.753Z,19.64
2023-05-02T12:23:24.778Z,19.84
2023-05-02T12:25:51.654Z,20.37
2023-05-02T12:28:19.607Z,20.20
2023-05-02T12:30:48.384Z,20.50
2023-05-02T12:33:16.762Z,20.65
2023-05-02T12:35:45.619Z,20.69
2023-05-02T12:38:17.718Z,20.79
2023-05-02T12:40:54.668Z,20.99
2023-05-02T12:43:22.291Z,21.04
2023-05-02T12:45:49.740Z,21.19
2023-05-02T12:48:26.935Z,21.23
2023-05-02T12:50:54.851Z,21.72
2023-05-02T12:53:44.139Z,22.23
2023-05-02T12:56:11.446Z,22.97
2023-05-02T12:58:43.065Z,23.47
2023-05-02T13:01:10.455Z,24.27
2023-05-02T13:03:37.409Z,24.63
2023-05-02T13:06:04.426Z,24.99
2023-05-02T13:08:33.227Z,25.40
2023-05-02T13:11:00.885Z,25.97
2023-05-02T13:13:28.055Z,26.37
2023-05-02T13:15:55.030Z,27.13
2023-05-02T13:18:21.863Z,27.72
2023-05-02T13:20:48.672Z,27.96
2023-05-02T13:23:17.025Z,28.29
2023-05-02T13:25:43.825Z,28.39
2023-05-02T13:28:10.628Z,28.52
2023-05-02T13:30:37.654Z,28.92
2023-05-02T13:33:04.625Z,29.32
2023-05-02T13:35:33.351Z,29.55
2023-05-02T13:38:01.596Z,29.67
2023-05-02T13:40:28.795Z,29.93
2023-05-02T13:42:55.723Z,29.98
2023-05-02T13:45:22.603Z,30.12
2023-05-02T13:47:49.502Z,30.37
2023-05-02T13:50:16.365Z,30.65
2023-05-02T13:52:43.153Z,30.69
2023-05-02T13:55:09.938Z,30.62
2023-05-02T13:57:36.703Z,30.69
2023-05-02T14:00:04.879Z,30.79
2023-05-02T14:02:32.124Z,30.62
2023-05-02T14:04:58.985Z,30.50
2023-05-02T14:07:25.901Z,30.35
2023-05-02T14:09:52.707Z,30.25
2023-05-02T14:12:19.548Z,29.99
2023-05-02T14:14:46.632Z,30.12
2023-05-02T14:17:13.794Z,30.06
2023-05-02T14:19:40.622Z,29.87
2023-05-02T14:22:07.568Z,29.82
2023-05-02T14:24:34.742Z,29.90
2023-05-02T14:27:01.633Z,29.80
2023-05-02T14:29:28.485Z,30.04
2023-05-02T14:31:55.462Z,30.29
2023-05-02T14:34:22.299Z,30.43
2023-05-02T14:36:49.225Z,30.61
2023-05-02T14:39:16.050Z,30.84
2023-05-02T14:41:42.880Z,30.80
2023-05-02T14:44:09.892Z,30.74
2023-05-02T14:46:36.703Z,30.79
2023-05-02T14:49:03.540Z,30.99
2023-05-02T14:51:32.184Z,31.08
2023-05-02T14:53:59.032Z,31.01
2023-05-02T14:56:25.868Z,31.01
2023-05-02T14:58:52.661Z,31.13
2023-05-02T15:01:20.054Z,31.21
2023-05-02T15:04:04.100Z,31.06
2023-05-02T15:06:32.003Z,31.17
2023-05-02T15:08:58.824Z,31.09
2023-05-02T15:11:25.707Z,31.19
2023-05-02T15:13:52.583Z,31.10
2023-05-02T15:16:19.740Z,31.24
2023-05-02T15:18:47.042Z,31.35
2023-05-02T15:21:13.931Z,31.61
2023-05-02T15:23:40.727Z,31.65
2023-05-02T15:26:07.517Z,31.78
2023-05-02T15:28:34.436Z,31.92
2023-05-02T15:31:01.285Z,32.07
2023-05-02T15:33:28.819Z,31.97
2023-05-02T15:35:58.471Z,31.97
2023-05-02T15:38:28.439Z,31.98
2023-05-02T15:40:56.075Z,31.98
2023-05-02T15:43:23.447Z,32.01
2023-05-02T15:45:54.940Z,32.13
2023-05-02T15:48:22.077Z,32.19
2023-05-02T15:50:49.082Z,32.28
2023-05-02T15:53:16.350Z,32.36
2023-05-02T15:55:43.584Z,32.34
2023-05-02T15:58:10.703Z,32.39
2023-05-02T16:00:37.674Z,32.44
2023-05-02T16:03:04.849Z,32.59
2023-05-02T16:05:32.803Z,32.60
2023-05-02T16:07:59.763Z,32.74
2023-05-02T16:10:27.130Z,32.90
2023-05-02T16:12:54.249Z,32.92
2023-05-02T16:15:21.496Z,32.95
2023-05-02T16:17:49.172Z,33.00
2023-05-02T16:20:17.349Z,33.06
2023-05-02T16:22:46.073Z,33.20
2023-05-02T16:25:13.594Z,33.31
2023-05-02T16:27:41.083Z,33.14
2023-05-02T16:30:08.586Z,33.24
2023-05-02T16:32:37.421Z,33.34
2023-05-02T16:35:10.841Z,33.35
2023-05-02T16:37:37.839Z,33.38
2023-05-02T16:40:06.199Z,33.49
2023-05-02T16:42:34.504Z,33.59
2023-05-02T16:45:01.394Z,33.75
2023-05-02T16:47:28.409Z,33.79
2023-05-02T16:49:56.130Z,33.89
2023-05-02T16:52:23.050Z,34.05
2023-05-02T16:54:50.093Z,34.02
2023-05-02T16:57:21.516Z,34.13
2023-05-02T16:59:49.303Z,34.23
2023-05-02T17:02:16.449Z,34.29
2023-05-02T17:04:44.854Z,34.38
2023-05-02T17:07:31.550Z,34.39
2023-05-02T17:09:58.514Z,34.45
2023-05-02T17:12:25.916Z,34.58
2023-05-02T17:14:54.624Z,34.68
2023-05-02T17:17:26.917Z,34.62
2023-05-02T17:19:56.128Z,34.74
2023-05-02T17:22:32.463Z,34.87
2023-05-02T17:25:01.233Z,34.87
2023-05-02T17:27:34.673Z,35.01
2023-05-02T17:30:03.417Z,35.07
2023-05-02T17:32:32.114Z,35.17
2023-05-02T17:34:59.333Z,35.28
2023-05-02T17:37:26.387Z,35.38
2023-05-02T17:39:53.334Z,35.41
2023-05-02T17:42:20.180Z,35.64
2023-05-02T17:44:48.554Z,35.65
2023-05-02T17:47:16.969Z,35.78
2023-05-02T17:51:29.601Z,35.85
2023-05-02T17:53:56.597Z,35.97
2023-05-02T17:56:23.498Z,36.01
2023-05-02T17:58:50.862Z,36.11
2023-05-02T18:01:17.894Z,36.26
2023-05-02T18:03:45.452Z,36.13
2023-05-02T18:06:16.839Z,36.27
2023-05-02T18:08:44.766Z,36.27
2023-05-02T18:11:18.525Z,36.28
2023-05-02T18:13:45.725Z,36.39
2023-05-02T18:16:13.947Z,36.44
2023-05-02T18:18:41.210Z,36.53
2023-05-02T18:21:09.442Z,36.54
2023-05-02T18:23:36.282Z,36.59
2023-05-02T18:26:03.396Z,36.83
2023-05-02T18:28:30.325Z,36.69
2023-05-02T18:30:57.708Z,36.75
2023-05-02T18:33:26.727Z,36.81
2023-05-02T18:35:54.172Z,36.92
2023-05-02T18:38:21.109Z,36.87
2023-05-02T18:41:00.732Z,36.85
2023-05-02T18:43:28.865Z,36.88
2023-05-02T18:45:55.777Z,37.08
2023-05-02T18:48:22.702Z,37.03
2023-05-02T18:50:49.633Z,37.16
2023-05-02T18:53:16.643Z,37.17
2023-05-02T18:55:43.495Z,37.06
2023-05-02T18:58:10.376Z,37.17
2023-05-02T19:00:37.482Z,37.23
2023-05-02T19:03:04.674Z,37.17
2023-05-02T19:05:31.610Z,37.31
2023-05-02T19:07:59.807Z,37.36
2023-05-02T19:10:26.687Z,37.37
2023-05-02T19:12:53.528Z,37.32
2023-05-02T19:15:20.347Z,37.43
2023-05-02T19:17:47.782Z,37.54
2023-05-02T19:20:14.639Z,37.55
2023-05-02T19:22:42.801Z,37.56
2023-05-02T19:25:10.062Z,37.64
2023-05-02T19:27:36.894Z,37.70
2023-05-02T19:30:04.295Z,37.81
2023-05-02T19:32:31.850Z,38.04
2023-05-02T19:34:58.883Z,37.88
2023-05-02T19:37:25.813Z,37.99
2023-05-02T19:39:52.698Z,38.10
2023-05-02T19:42:19.560Z,38.24
2023-05-02T19:44:48.141Z,38.32
2023-05-02T19:47:14.959Z,38.35
2023-05-02T19:49:43.154Z,38.50
2023-05-02T19:52:10.736Z,38.62
2023-05-02T19:54:37.610Z,38.58
2023-05-02T19:57:04.618Z,38.69
2023-05-02T19:59:31.419Z,38.86
2023-05-02T20:01:58.183Z,38.82
2023-05-02T20:04:25.906Z,39.07
2023-05-02T20:06:52.805Z,39.11
2023-05-02T20:09:19.733Z,39.03
2023-05-02T20:11:46.732Z,39.30
2023-05-02T20:14:13.463Z,39.29
2023-05-02T20:16:40.543Z,39.66
2023-05-02T20:19:07.288Z,39.71
2023-05-02T20:21:34.048Z,39.87
2023-05-02T20:24:01.008Z,39.85
2023-05-02T20:26:31.248Z,40.32
2023-05-02T20:28:58.872Z,40.43
2023-05-02T20:31:26.554Z,40.52
2023-05-02T20:33:53.399Z,40.61
2023-05-02T20:36:21.031Z,40.67
2023-05-02T20:38:47.942Z,41.05
2023-05-02T20:41:14.956Z,41.14
2023-05-02T20:43:45.126Z,41.41
2023-05-02T20:46:13.125Z,41.67
2023-05-02T20:48:40.409Z,41.62
2023-05-02T20:51:08.865Z,41.86
2023-05-02T20:53:37.229Z,42.03
2023-05-02T20:56:04.249Z,42.05
2023-05-02T20:58:31.085Z,42.21
2023-05-02T21:00:58.082Z,42.59
2023-05-02T21:03:25.014Z,42.74
2023-05-02T21:05:55.613Z,42.61
2023-05-02T21:08:22.820Z,42.89
2023-05-02T21:10:49.743Z,43.00
2023-05-02T21:13:16.475Z,43.20
2023-05-02T21:15:43.295Z,43.17
2023-05-02T21:18:10.123Z,43.26
2023-05-02T21:20:38.178Z,43.32
2023-05-02T21:23:05.190Z,43.30
2023-05-02T21:25:31.999Z,43.35
2023-05-02T21:27:58.974Z,43.42
2023-05-02T21:30:25.830Z,43.48
2023-05-02T21:32:52.776Z,43.48
2023-05-02T21:35:19.926Z,43.56
2023-05-02T21:37:46.868Z,43.56
2023-05-02T21:40:13.967Z,43.61
2023-05-02T21:42:41.101Z,43.61
2023-05-02T21:45:09.101Z,43.68
2023-05-02T21:47:36.049Z,43.77
2023-05-02T21:50:04.426Z,44.05
2023-05-02T21:52:31.843Z,44.12
2023-05-02T21:54:58.721Z,44.08
2023-05-02T21:57:25.626Z,44.06
2023-05-02T21:59:52.495Z,43.95
2023-05-02T22:02:19.352Z,44.11
2023-05-02T22:04:48.265Z,44.04
2023-05-02T22:07:16.145Z,44.09
2023-05-02T22:09:42.947Z,44.17
2023-05-02T22:12:09.788Z,44.15
2023-05-02T22:14:44.281Z,44.11
2023-05-02T22:17:18.650Z,44.08
2023-05-02T22:19:49.498Z,44.09
2023-05-02T22:22:16.259Z,44.06
2023-05-02T22:24:43.066Z,43.95
2023-05-02T22:27:09.951Z,43.92
2023-05-02T22:29:36.755Z,43.92
2023-05-02T22:32:03.700Z,43.88
2023-05-02T22:34:30.642Z,44.04
2023-05-02T22:36:57.410Z,43.90
2023-05-02T22:39:24.546Z,44.00
2023-05-02T22:44:53.157Z,44.26
2023-05-02T22:47:21.900Z,44.36
2023-05-02T22:49:49.944Z,44.47
2023-05-02T22:52:18.494Z,44.57
2023-05-02T22:54:45.410Z,44.81
2023-05-02T22:57:12.277Z,44.96
2023-05-02T22:59:39.096Z,45.07
2023-05-02T23:02:05.972Z,45.14
2023-05-02T23:04:33.646Z,45.19
2023-05-02T23:07:00.430Z,45.24
2023-05-02T23:09:27.542Z,45.42
2023-05-02T23:11:54.357Z,45.51
2023-05-02T23:14:22.953Z,45.51
2023-05-02T23:16:50.027Z,45.58
2023-05-02T23:19:17.217Z,45.69
2023-05-02T23:21:43.970Z,45.75
2023-05-02T23:24:10.791Z,45.79
2023-05-02T23:26:37.592Z,45.94
2023-05-02T23:29:05.823Z,45.91
2023-05-02T23:31:33.108Z,46.12
2023-05-02T23:34:00.243Z,46.22
2023-05-02T23:36:27.192Z,46.14
2023-05-02T23:38:54.043Z,46.15
2023-05-02T23:41:20.842Z,46.19
2023-05-02T23:43:47.631Z,46.13
2023-05-02T23:46:14.410Z,46.25
2023-05-02T23:48:41.219Z,46.28
2023-05-02T23:51:08.045Z,46.35
2023-05-02T23:53:34.857Z,46.35
2023-05-02T23:56:01.976Z,46.21
2023-05-02T23:58:28.749Z,46.21
